createdAt,value
2022-08-07T00:00:31.396Z,23.80
2022-08-07T00:02:58.145Z,23.70
2022-08-07T00:05:24.942Z,23.80
2022-08-07T00:07:59.778Z,23.50
2022-08-07T00:10:30.685Z,23.60
2022-08-07T00:13:01.077Z,23.30
2022-08-07T00:15:35.885Z,23.30
2022-08-07T00:18:05.534Z,23.20
2022-08-07T00:20:34.424Z,23.30
2022-08-07T00:23:02.319Z,23.30
2022-08-07T00:25:41.168Z,23.20
2022-08-07T00:28:08.405Z,23.20
2022-08-07T00:30:37.466Z,22.90
2022-08-07T00:33:04.931Z,23.00
2022-08-07T00:35:35.287Z,23.10
2022-08-07T00:38:03.668Z,23.30
2022-08-07T00:40:36.124Z,23.50
2022-08-07T00:43:03.829Z,23.50
2022-08-07T00:45:36.852Z,23.40
2022-08-07T00:48:07.636Z,22.60
2022-08-07T00:50:51.383Z,22.80
2022-08-07T00:53:20.130Z,23.20
2022-08-07T00:56:02.860Z,23.10
2022-08-07T00:58:31.111Z,22.90
2022-08-07T01:00:58.726Z,22.80
2022-08-07T01:03:57.202Z,22.90
2022-08-07T01:06:12.538Z,23.20
2022-08-07T01:08:46.531Z,23.40
2022-08-07T01:12:27.805Z,22.60
2022-08-07T01:14:07.511Z,22.80
2022-08-07T01:16:36.739Z,22.80
2022-08-07T01:19:03.887Z,23.00
2022-08-07T01:21:30.678Z,22.80
2022-08-07T01:23:57.953Z,22.80
2022-08-07T01:26:25.962Z,22.50
2022-08-07T01:28:53.269Z,22.40
2022-08-07T01:31:20.031Z,22.40
2022-08-07T01:33:56.355Z,22.70
2022-08-07T01:36:33.249Z,22.50
2022-08-07T01:39:00.488Z,22.60
2022-08-07T01:41:27.293Z,22.60
2022-08-07T01:43:54.039Z,22.80
2022-08-07T01:46:21.364Z,22.80
2022-08-07T01:48:48.495Z,22.60
2022-08-07T01:51:58.585Z,22.40
2022-08-07T01:54:12.806Z,22.40
2022-08-07T01:56:55.208Z,22.30
2022-08-07T01:59:30.973Z,22.50
2022-08-07T02:02:02.481Z,22.50
2022-08-07T02:04:37.344Z,22.30
2022-08-07T02:07:04.154Z,22.40
2022-08-07T02:09:52.461Z,22.20
2022-08-07T02:12:17.759Z,22.30
2022-08-07T02:14:46.090Z,22.20
2022-08-07T02:17:13.552Z,22.30
2022-08-07T02:20:04.273Z,22.40
2022-08-07T02:22:41.023Z,22.20
2022-08-07T02:25:13.987Z,22.10
2022-08-07T02:27:44.512Z,22.10
2022-08-07T02:30:19.119Z,22.20
2022-08-07T02:33:00.996Z,22.30
2022-08-07T02:36:28.987Z,22.30
2022-08-07T02:38:22.849Z,22.20
2022-08-07T02:40:56.104Z,22.30
2022-08-07T02:43:22.931Z,22.40
2022-08-07T02:45:58.251Z,22.10
2022-08-07T02:48:28.234Z,22.00
2022-08-07T02:50:55.117Z,22.00
2022-08-07T02:53:22.831Z,21.90
2022-08-07T02:56:02.431Z,21.90
2022-08-07T02:58:33.480Z,22.10
2022-08-07T03:01:00.605Z,21.80
2022-08-07T03:03:29.645Z,21.70
2022-08-07T03:06:16.582Z,21.90
2022-08-07T03:08:52.449Z,21.80
2022-08-07T03:11:19.587Z,21.90
2022-08-07T03:13:52.099Z,22.00
2022-08-07T03:16:27.966Z,22.00
2022-08-07T03:18:54.783Z,22.00
2022-08-07T03:21:22.566Z,21.80
2022-08-07T03:24:19.722Z,21.80
2022-08-07T03:26:36.065Z,21.70
2022-08-07T03:29:17.583Z,21.70
2022-08-07T03:31:46.158Z,21.90
2022-08-07T03:34:18.223Z,21.80
2022-08-07T03:36:45.690Z,21.80
2022-08-07T03:39:13.079Z,21.80
2022-08-07T03:41:42.141Z,21.90
2022-08-07T03:44:15.316Z,21.90
2022-08-07T03:47:13.144Z,21.80
2022-08-07T03:49:29.590Z,21.80
2022-08-07T03:52:01.146Z,21.90
2022-08-07T03:54:35.830Z,21.90
2022-08-07T03:59:06.700Z,22.00
2022-08-07T04:00:03.897Z,22.00
2022-08-07T04:02:31.001Z,21.70
2022-08-07T04:04:58.508Z,21.80
2022-08-07T04:07:25.724Z,21.80
2022-08-07T04:10:08.563Z,22.00
2022-08-07T04:12:42.551Z,21.50
2022-08-07T04:15:10.027Z,21.70
2022-08-07T04:18:57.003Z,21.50
2022-08-07T04:20:25.627Z,21.60
2022-08-07T04:23:01.197Z,21.80
2022-08-07T04:25:29.309Z,21.40
2022-08-07T04:28:00.629Z,21.40
2022-08-07T04:30:39.560Z,21.80
2022-08-07T04:33:11.405Z,21.70
2022-08-07T04:35:42.321Z,21.80
2022-08-07T04:38:09.274Z,21.60
2022-08-07T04:40:51.607Z,21.70
2022-08-07T04:43:19.926Z,21.80
2022-08-07T04:46:00.740Z,21.50
2022-08-07T04:48:35.449Z,21.70
2022-08-07T04:51:09.131Z,21.70
2022-08-07T04:54:01.675Z,21.60
2022-08-07T04:58:14.874Z,21.80
2022-08-07T05:00:10.822Z,21.80
2022-08-07T05:02:29.108Z,21.50
2022-08-07T05:05:00.475Z,21.60
2022-08-07T05:07:48.658Z,21.80
2022-08-07T05:10:19.945Z,21.90
2022-08-07T05:12:53.642Z,21.60
2022-08-07T05:15:24.516Z,21.30
2022-08-07T05:17:57.349Z,21.60
2022-08-07T05:20:26.849Z,21.70
2022-08-07T05:22:54.989Z,21.70
2022-08-07T05:25:25.744Z,21.60
2022-08-07T05:28:20.376Z,21.80
2022-08-07T05:30:49.485Z,21.80
2022-08-07T05:33:18.189Z,21.70
2022-08-07T05:35:47.973Z,22.00
2022-08-07T05:39:00.519Z,22.00
2022-08-07T05:41:02.526Z,21.70
2022-08-07T05:43:49.509Z,22.10
2022-08-07T05:46:29.573Z,22.30
2022-08-07T05:48:58.293Z,22.10
2022-08-07T05:51:26.431Z,22.10
2022-08-07T05:54:13.867Z,22.20
2022-08-07T05:56:45.773Z,22.40
2022-08-07T05:59:16.838Z,22.20
2022-08-07T06:01:43.825Z,21.90
2022-08-07T06:04:14.292Z,22.10
2022-08-07T06:06:46.210Z,21.80
2022-08-07T06:09:15.039Z,22.10
2022-08-07T06:11:42.324Z,22.10
2022-08-07T06:14:13.218Z,22.30
2022-08-07T06:16:50.774Z,22.70
2022-08-07T06:19:51.844Z,22.40
2022-08-07T06:22:14.679Z,22.20
2022-08-07T06:24:56.929Z,22.40
2022-08-07T06:27:44.490Z,22.70
2022-08-07T06:30:32.184Z,22.10
2022-08-07T06:32:58.761Z,22.20
2022-08-07T06:35:25.496Z,22.20
2022-08-07T06:38:06.067Z,22.10
2022-08-07T06:40:37.574Z,21.90
2022-08-07T06:43:21.525Z,21.90
2022-08-07T06:45:50.215Z,21.80
2022-08-07T06:48:25.256Z,22.20
2022-08-07T06:50:53.028Z,22.50
2022-08-07T06:55:27.256Z,22.70
2022-08-07T06:56:15.326Z,22.80
2022-08-07T07:00:14.657Z,22.60
2022-08-07T07:01:33.325Z,22.80
2022-08-07T07:04:28.620Z,23.20
2022-08-07T07:07:00.947Z,23.00
2022-08-07T07:09:30.831Z,23.00
2022-08-07T07:12:08.284Z,23.00
2022-08-07T07:15:00.623Z,23.40
2022-08-07T07:17:45.491Z,23.40
2022-08-07T07:20:21.110Z,23.40
2022-08-07T07:24:06.410Z,23.90
2022-08-07T07:26:32.783Z,23.30
2022-08-07T07:28:42.395Z,22.60
2022-08-07T07:31:30.473Z,22.50
2022-08-07T07:34:07.679Z,22.60
2022-08-07T07:36:34.460Z,23.00
2022-08-07T07:39:01.345Z,22.90
2022-08-07T07:41:30.974Z,22.90
2022-08-07T07:44:21.425Z,23.00
2022-08-07T07:46:54.721Z,23.00
2022-08-07T07:50:36.104Z,23.10
2022-08-07T07:52:12.991Z,22.70
2022-08-07T07:54:40.402Z,22.80
2022-08-07T07:57:18.804Z,23.40
2022-08-07T08:00:05.980Z,23.70
2022-08-07T08:02:36.175Z,23.60
2022-08-07T08:05:03.154Z,23.40
2022-08-07T08:07:35.365Z,23.20
2022-08-07T08:10:08.933Z,23.70
2022-08-07T08:12:59.083Z,23.50
2022-08-07T08:15:27.770Z,23.90
2022-08-07T08:18:14.500Z,23.70
2022-08-07T08:20:44.899Z,24.40
2022-08-07T08:23:34.755Z,24.70
2022-08-07T08:26:21.474Z,24.00
2022-08-07T08:28:50.135Z,23.80
2022-08-07T08:31:30.127Z,24.40
2022-08-07T08:34:12.471Z,24.60
2022-08-07T08:36:57.640Z,25.10
2022-08-07T08:39:25.565Z,24.40
2022-08-07T08:42:09.283Z,24.20
2022-08-07T08:44:54.797Z,24.50
2022-08-07T08:47:22.259Z,24.70
2022-08-07T08:50:10.876Z,24.90
2022-08-07T08:52:40.887Z,25.60
2022-08-07T08:55:54.532Z,25.40
2022-08-07T08:58:28.936Z,25.50
2022-08-07T09:01:14.579Z,25.50
2022-08-07T09:04:00.987Z,25.20
2022-08-07T09:06:47.868Z,25.10
2022-08-07T09:09:30.154Z,25.20
2022-08-07T09:12:20.265Z,25.80
2022-08-07T09:16:22.942Z,26.60
2022-08-07T09:18:23.877Z,26.30
2022-08-07T09:21:13.855Z,25.60
2022-08-07T09:24:54.764Z,25.40
2022-08-07T09:26:58.415Z,25.30
2022-08-07T09:30:05.065Z,25.40
2022-08-07T09:32:43.788Z,26.00
2022-08-07T09:36:02.952Z,27.10
2022-08-07T09:38:00.808Z,26.70
2022-08-07T09:40:36.750Z,26.30
2022-08-07T09:43:39.964Z,26.70
2022-08-07T09:47:49.463Z,26.80
2022-08-07T09:50:01.835Z,26.30
2022-08-07T09:52:16.639Z,27.20
2022-08-07T09:54:47.577Z,27.00
2022-08-07T09:57:22.501Z,27.10
2022-08-07T10:00:08.555Z,27.90
2022-08-07T10:02:55.338Z,29.20
2022-08-07T10:05:58.303Z,29.50
2022-08-07T10:08:15.553Z,29.40
2022-08-07T10:11:59.418Z,28.60
2022-08-07T10:14:00.716Z,28.10
2022-08-07T10:16:37.388Z,28.00
2022-08-07T10:19:20.237Z,27.70
2022-08-07T10:22:16.014Z,28.10
2022-08-07T10:24:50.315Z,30.30
2022-08-07T10:27:20.173Z,30.00
2022-08-07T10:29:59.275Z,29.80
2022-08-07T10:32:51.673Z,29.50
2022-08-07T10:35:55.364Z,29.90
2022-08-07T10:38:42.357Z,30.30
2022-08-07T10:41:51.749Z,30.70
2022-08-07T10:44:28.777Z,30.80
2022-08-07T10:47:27.242Z,31.60
2022-08-07T10:50:16.290Z,31.90
2022-08-07T10:52:51.313Z,31.70
2022-08-07T10:55:26.739Z,31.50
2022-08-07T10:58:10.520Z,30.60
2022-08-07T11:00:50.164Z,30.60
2022-08-07T11:03:20.232Z,30.40
2022-08-07T11:06:08.614Z,30.20
2022-08-07T11:08:55.793Z,30.20
2022-08-07T11:11:37.662Z,29.90
2022-08-07T11:14:57.114Z,30.70
2022-08-07T11:17:09.008Z,31.20
2022-08-07T11:19:38.418Z,32.40
2022-08-07T11:22:06.411Z,32.50
2022-08-07T11:24:51.738Z,32.60
2022-08-07T11:28:01.906Z,32.20
2022-08-07T11:30:29.090Z,34.50
2022-08-07T11:33:14.118Z,35.80
2022-08-07T11:36:00.352Z,35.10
2022-08-07T11:38:39.989Z,33.40
2022-08-07T11:41:18.269Z,34.30
2022-08-07T11:44:26.030Z,35.90
2022-08-07T11:47:10.027Z,35.30
2022-08-07T11:50:11.249Z,36.30
2022-08-07T11:52:35.623Z,36.60
2022-08-07T11:56:24.841Z,37.40
2022-08-07T11:58:20.872Z,36.80
2022-08-07T12:01:20.143Z,36.30
2022-08-07T12:04:05.434Z,35.40
2022-08-07T12:06:37.879Z,36.90
2022-08-07T12:09:22.947Z,38.10
2022-08-07T12:12:08.866Z,36.80
2022-08-07T12:15:01.205Z,38.20
2022-08-07T12:17:58.638Z,39.90
2022-08-07T12:20:32.236Z,38.70
2022-08-07T12:23:09.036Z,35.80
2022-08-07T12:26:21.778Z,34.90
2022-08-07T12:28:57.546Z,36.90
2022-08-07T12:31:53.228Z,37.70
2022-08-07T12:34:14.470Z,36.80
2022-08-07T12:36:42.185Z,37.10
2022-08-07T12:39:42.305Z,37.60
2022-08-07T12:42:03.134Z,37.60
2022-08-07T12:44:33.773Z,39.00
2022-08-07T12:47:09.900Z,40.20
2022-08-07T12:49:51.742Z,40.70
2022-08-07T12:52:36.656Z,40.50
2022-08-07T12:55:05.685Z,41.40
2022-08-07T12:57:38.927Z,39.60
2022-08-07T13:00:41.747Z,36.40
2022-08-07T13:03:59.075Z,38.20
2022-08-07T13:06:58.873Z,37.90
2022-08-07T13:10:28.454Z,40.40
2022-08-07T13:12:37.201Z,40.20
2022-08-07T13:15:14.459Z,40.10
2022-08-07T13:18:03.655Z,41.40
2022-08-07T13:20:51.135Z,41.70
2022-08-07T13:24:01.577Z,42.50
2022-08-07T13:26:15.850Z,42.90
2022-08-07T13:28:46.606Z,41.70
2022-08-07T13:31:21.286Z,41.00
2022-08-07T13:34:31.693Z,41.30
2022-08-07T13:36:40.491Z,40.80
2022-08-07T13:39:13.154Z,39.50
2022-08-07T13:41:55.340Z,40.10
2022-08-07T13:44:26.090Z,41.50
2022-08-07T13:46:57.620Z,42.40
2022-08-07T13:50:33.798Z,42.00
2022-08-07T13:52:30.765Z,41.10
2022-08-07T13:55:00.594Z,41.20
2022-08-07T13:57:32.093Z,39.10
2022-08-07T14:00:07.112Z,37.90
2022-08-07T14:02:49.425Z,38.90
2022-08-07T14:05:22.044Z,39.30
2022-08-07T14:08:00.417Z,40.40
2022-08-07T14:10:33.684Z,41.40
2022-08-07T14:13:09.284Z,41.40
2022-08-07T14:15:38.306Z,41.60
2022-08-07T14:18:24.164Z,40.30
2022-08-07T14:21:08.063Z,39.90
2022-08-07T14:23:59.979Z,39.50
2022-08-07T14:26:30.596Z,39.10
2022-08-07T14:29:04.394Z,38.20
2022-08-07T14:31:42.519Z,37.40
2022-08-07T14:34:11.470Z,36.70
2022-08-07T14:36:47.581Z,37.00
2022-08-07T14:40:17.072Z,36.80
2022-08-07T14:42:20.462Z,37.10
2022-08-07T14:47:37.434Z,37.00
2022-08-07T14:50:11.268Z,36.50
2022-08-07T14:52:40.751Z,35.20
2022-08-07T14:55:08.818Z,33.90
2022-08-07T14:57:54.741Z,34.00
2022-08-07T15:00:30.437Z,33.90
2022-08-07T15:08:47.554Z,32.70
2022-08-07T15:11:53.412Z,32.80
2022-08-07T15:14:10.092Z,32.80
2022-08-07T15:16:38.863Z,32.60
2022-08-07T15:19:22.663Z,32.30
2022-08-07T15:22:23.182Z,32.50
2022-08-07T15:25:16.382Z,32.50
2022-08-07T15:28:32.930Z,32.00
2022-08-07T15:30:31.561Z,32.20
2022-08-07T15:33:03.967Z,32.00
2022-08-07T15:36:01.386Z,32.10
2022-08-07T15:38:30.808Z,32.20
2022-08-07T15:41:24.144Z,32.20
2022-08-07T15:43:57.280Z,32.20
2022-08-07T15:46:37.237Z,32.40
2022-08-07T15:51:54.494Z,32.00
2022-08-07T15:54:42.765Z,31.90
2022-08-07T15:57:39.112Z,32.00
2022-08-07T15:59:59.312Z,31.80
2022-08-07T16:02:31.141Z,32.40
2022-08-07T16:04:58.524Z,32.30
2022-08-07T16:08:31.866Z,32.10
2022-08-07T16:10:17.948Z,31.80
2022-08-07T16:13:05.378Z,31.70
2022-08-07T16:15:58.831Z,31.60
2022-08-07T16:18:51.693Z,31.50
2022-08-07T16:21:56.860Z,31.60
2022-08-07T16:24:40.783Z,31.80
2022-08-07T16:27:19.593Z,32.40
2022-08-07T16:30:09.926Z,32.00
2022-08-07T16:32:46.381Z,31.70
2022-08-07T16:35:56.759Z,32.00
2022-08-07T16:38:44.468Z,32.20
2022-08-07T16:41:23.743Z,32.50
2022-08-07T16:44:03.958Z,31.90
2022-08-07T16:47:06.655Z,31.60
2022-08-07T16:50:28.672Z,31.20
2022-08-07T16:52:55.383Z,31.40
2022-08-07T16:55:47.385Z,31.20
2022-08-07T16:58:17.845Z,31.00
2022-08-07T17:00:45.081Z,30.70
2022-08-07T17:03:17.211Z,30.40
2022-08-07T17:06:19.572Z,30.60
2022-08-07T17:09:10.871Z,30.80
2022-08-07T17:12:01.251Z,30.70
2022-08-07T17:14:25.343Z,30.80
2022-08-07T17:16:55.812Z,30.80
2022-08-07T17:20:03.539Z,30.80
2022-08-07T17:22:45.222Z,30.80
2022-08-07T17:25:47.741Z,30.80
2022-08-07T17:28:11.881Z,30.90
2022-08-07T17:30:59.939Z,31.00
2022-08-07T17:34:32.657Z,30.80
2022-08-07T17:36:32.453Z,30.40
2022-08-07T17:39:25.917Z,29.80
2022-08-07T17:42:15.480Z,29.50
2022-08-07T17:44:49.997Z,29.40
2022-08-07T17:47:38.045Z,29.20
2022-08-07T17:50:32.379Z,29.30
2022-08-07T17:53:01.738Z,29.20
2022-08-07T17:55:54.825Z,29.20
2022-08-07T17:58:34.599Z,29.00
2022-08-07T18:01:20.829Z,29.00
2022-08-07T18:04:08.093Z,28.70
2022-08-07T18:07:20.881Z,28.60
2022-08-07T18:10:06.349Z,28.70
2022-08-07T18:12:40.649Z,28.70
2022-08-07T18:15:19.145Z,28.60
2022-08-07T18:18:44.762Z,28.40
2022-08-07T18:21:02.973Z,28.40
2022-08-07T18:23:50.648Z,28.50
2022-08-07T18:26:26.381Z,28.40
2022-08-07T18:28:58.683Z,28.40
2022-08-07T18:31:50.299Z,28.30
2022-08-07T18:34:37.889Z,28.20
2022-08-07T18:37:09.350Z,28.10
2022-08-07T18:40:08.864Z,28.00
2022-08-07T18:42:34.854Z,27.80
2022-08-07T18:45:44.583Z,27.80
2022-08-07T18:48:01.087Z,27.90
2022-08-07T18:50:47.070Z,27.70
2022-08-07T18:53:14.435Z,27.90
2022-08-07T18:55:56.041Z,27.70
2022-08-07T18:58:24.496Z,27.90
2022-08-07T19:01:07.035Z,27.40
2022-08-07T19:03:38.760Z,27.00
2022-08-07T19:06:16.170Z,26.60
2022-08-07T19:08:59.866Z,26.70
2022-08-07T19:11:37.387Z,26.90
2022-08-07T19:14:20.096Z,27.10
2022-08-07T19:17:07.723Z,27.40
2022-08-07T19:19:53.113Z,27.50
2022-08-07T19:22:31.348Z,27.30
2022-08-07T19:24:58.935Z,27.30
2022-08-07T19:28:57.947Z,27.40
2022-08-07T19:31:00.297Z,27.60
2022-08-07T19:33:10.331Z,27.20
2022-08-07T19:35:40.242Z,26.60
2022-08-07T19:38:15.898Z,26.20
2022-08-07T19:40:49.376Z,26.10
2022-08-07T19:43:50.172Z,25.90
2022-08-07T19:46:10.061Z,26.00
2022-08-07T19:48:43.027Z,26.00
2022-08-07T19:51:19.972Z,25.90
2022-08-07T19:54:29.736Z,25.80
2022-08-07T19:58:02.350Z,25.80
2022-08-07T19:59:40.871Z,25.70
2022-08-07T20:02:15.291Z,25.90
2022-08-07T20:04:48.891Z,25.80
2022-08-07T20:07:23.877Z,25.80
2022-08-07T20:10:37.235Z,25.90
2022-08-07T20:12:50.113Z,26.00
2022-08-07T20:15:18.940Z,25.80
2022-08-07T20:18:01.687Z,25.80
2022-08-07T20:20:30.533Z,25.60
2022-08-07T20:23:00.125Z,25.50
2022-08-07T20:25:28.104Z,25.40
2022-08-07T20:27:58.715Z,25.40
2022-08-07T20:30:33.911Z,25.10
2022-08-07T20:33:01.312Z,25.10
2022-08-07T20:35:34.317Z,25.10
2022-08-07T20:38:03.589Z,25.20
2022-08-07T20:40:34.304Z,25.40
2022-08-07T20:43:02.413Z,25.20
2022-08-07T20:45:32.731Z,25.00
2022-08-07T20:48:28.421Z,24.80
2022-08-07T20:50:56.709Z,24.90
2022-08-07T20:53:25.916Z,24.90
2022-08-07T20:56:11.304Z,24.80
2022-08-07T20:58:38.691Z,24.60
2022-08-07T21:01:19.911Z,24.90
2022-08-07T21:04:13.129Z,25.00
2022-08-07T21:06:34.822Z,24.90
2022-08-07T21:09:07.557Z,24.60
2022-08-07T21:11:50.979Z,24.70
2022-08-07T21:14:34.022Z,24.90
2022-08-07T21:18:00.461Z,25.00
2022-08-07T21:19:51.154Z,24.80
2022-08-07T21:22:28.344Z,24.80
2022-08-07T21:25:04.826Z,24.50
2022-08-07T21:28:01.679Z,24.70
2022-08-07T21:30:39.470Z,24.70
2022-08-07T21:33:13.261Z,24.70
2022-08-07T21:36:06.089Z,24.70
2022-08-07T21:38:36.644Z,24.60
2022-08-07T21:41:09.899Z,24.50
2022-08-07T21:43:55.147Z,24.30
2022-08-07T21:46:34.791Z,24.50
2022-08-07T21:49:14.410Z,24.60
2022-08-07T21:52:00.933Z,24.20
2022-08-07T21:54:30.695Z,24.30
2022-08-07T21:57:11.086Z,24.30
2022-08-07T22:00:09.837Z,24.40
2022-08-07T22:02:56.068Z,24.50
2022-08-07T22:05:46.017Z,24.60
2022-08-07T22:08:18.296Z,24.40
2022-08-07T22:10:46.424Z,24.50
2022-08-07T22:13:13.942Z,24.40
2022-08-07T22:16:42.502Z,24.40
2022-08-07T22:18:33.684Z,24.40
2022-08-07T22:21:03.891Z,24.80
2022-08-07T22:23:33.003Z,24.70
2022-08-07T22:26:06.042Z,24.60
2022-08-07T22:28:53.519Z,24.70
2022-08-07T22:31:58.894Z,24.50
2022-08-07T22:34:12.955Z,24.10
2022-08-07T22:36:42.779Z,23.90
2022-08-07T22:39:16.431Z,24.10
2022-08-07T22:42:03.540Z,24.00
2022-08-07T22:44:32.679Z,24.00
2022-08-07T22:47:14.950Z,24.10
2022-08-07T22:49:58.005Z,24.20
2022-08-07T22:52:39.686Z,24.20
2022-08-07T22:55:17.135Z,24.00
2022-08-07T22:57:51.933Z,23.90
2022-08-07T23:00:28.602Z,23.80
2022-08-07T23:02:58.904Z,23.70
2022-08-07T23:06:08.767Z,23.70
2022-08-07T23:08:32.596Z,23.60
2022-08-07T23:11:13.023Z,23.50
2022-08-07T23:14:14.990Z,23.30
2022-08-07T23:16:59.342Z,23.20
2022-08-07T23:19:57.808Z,23.10
2022-08-07T23:22:26.809Z,23.10
2022-08-07T23:25:02.101Z,23.10
2022-08-07T23:27:37.199Z,23.30
2022-08-07T23:30:39.682Z,23.20
2022-08-07T23:34:23.216Z,23.00
2022-08-07T23:36:04.368Z,22.70
2022-08-07T23:38:54.823Z,22.70
2022-08-07T23:41:47.617Z,22.80
2022-08-07T23:44:36.354Z,22.90
2022-08-07T23:47:03.087Z,23.10
2022-08-07T23:49:50.038Z,22.90
2022-08-07T23:53:00.971Z,22.90
2022-08-07T23:55:52.302Z,22.70
2022-08-07T23:58:18.727Z,22.70
